Algoma, West Virginia
Current Conditions -  °F | °C
As of 9:33 PM on Friday 31 Oct 2014 (Local Time) from KBLF Reporting Station
Light Rain Light Rain  
Wind Chill: 34°   Ceiling: 400
Heat Index: 38°   Visibility: 10mi
Dew Point: 34°   Wind: 5mph
Humidity: 86%   Direction: 300°WNW
Pressure: 29.83"   Gusts: NA
Location:  37.3807°N, 81.4099°W
Report Text: KBLF 010133Z AUTO 30004KT 10SM -RA OVC004 03/01 A2983 RMK AO2 P0001 T00330011
Loading
Personal Weather Stations






























Interactive Weather Map
Tropical Storm Tracking
New forecast layout! Learn more

10-Day Weather Forecast

Advertisements
Track Severe Weather on mobile